Terminal Aerodrome Forecast
Issued by NWS

Home | Current Version | Previous Version | Text Only | Print | Product List | Glossary On
Versions: 1 2 3 4 5 6 7 8 9 10 11 12 13 14 15 16
665
FTUS42 KJAX 241919 AAC
TAFCRG
TAF AMD
KCRG 241919Z 2419/2518 11012KT P6SM SCT060 SCT250
     FM250300 VRB02KT P6SM FEW250
     FM251300 14006KT P6SM FEW050 FEW250=

USA.gov is the U.S. government's official web portal to all federal, state and local government web resources and services.